Nomini Grove, Virginia
Current Conditions -  °F | °C
As of 9:35 PM on Friday 24 Oct 2014 (Local Time) from KXSA Reporting Station
Clear Clear  
Wind Chill: 47°   Ceiling: Unl
Heat Index: 47°   Visibility: 10mi
Dew Point: 42°   Wind: 3mph
Humidity: 84%   Direction: 260°W
Pressure: 29.95"   Gusts: NA
Location:  37.967°N, 76.7668°W
Report Text: KXSA 250135Z AUTO 26003KT 10SM CLR 08/06 A2995 RMK AO2 T00840058
Loading
Personal Weather Stations






























Interactive Weather Map
Tropical Storm Tracking
New forecast layout! Learn more

10-Day Weather Forecast

Advertisements
Track Severe Weather on mobile